sensor_id;sensor_type;location;lat;lon;timestamp;P1;P2;P0
33264;PMS5003;31404;53.974;-1.086;2024-02-14T00:00:39;31;28;
33264;PMS5003;31404;53.974;-1.086;2024-02-14T00:05:35;38;33;
33264;PMS5003;31404;53.974;-1.086;2024-02-14T00:10:35;40;34;
33264;PMS5003;31404;53.974;-1.086;2024-02-14T00:20:34;36;25;
33264;PMS5003;31404;53.974;-1.086;2024-02-14T00:25:34;32;28;
33264;PMS5003;31404;53.974;-1.086;2024-02-14T00:30:35;28;24;
33264;PMS5003;31404;53.974;-1.086;2024-02-14T00:35:34;35;26;
33264;PMS5003;31404;53.974;-1.086;2024-02-14T00:40:35;35;27;
33264;PMS5003;31404;53.974;-1.086;2024-02-14T00:45:34;40;31;
33264;PMS5003;31404;53.974;-1.086;2024-02-14T00:50:35;28;27;
33264;PMS5003;31404;53.974;-1.086;2024-02-14T00:55:35;36;27;
33264;PMS5003;31404;53.974;-1.086;2024-02-14T01:00:34;25;22;
33264;PMS5003;31404;53.974;-1.086;2024-02-14T01:05:35;31;22;
33264;PMS5003;31404;53.974;-1.086;2024-02-14T01:10:35;29;22;
33264;PMS5003;31404;53.974;-1.086;2024-02-14T01:15:34;25;20;
33264;PMS5003;31404;53.974;-1.086;2024-02-14T01:20:35;26;24;
33264;PMS5003;31404;53.974;-1.086;2024-02-14T01:25:36;23;23;
33264;PMS5003;31404;53.974;-1.086;2024-02-14T01:30:35;29;27;
33264;PMS5003;31404;53.974;-1.086;2024-02-14T01:35:35;36;22;
33264;PMS5003;31404;53.974;-1.086;2024-02-14T01:40:35;20;12;
33264;PMS5003;31404;53.974;-1.086;2024-02-14T01:45:34;20;14;
33264;PMS5003;31404;53.974;-1.086;2024-02-14T01:50:35;19;18;
33264;PMS5003;31404;53.974;-1.086;2024-02-14T01:55:35;31;28;
33264;PMS5003;31404;53.974;-1.086;2024-02-14T02:00:35;24;20;
33264;PMS5003;31404;53.974;-1.086;2024-02-14T02:05:34;32;26;
33264;PMS5003;31404;53.974;-1.086;2024-02-14T02:10:35;31;26;
33264;PMS5003;31404;53.974;-1.086;2024-02-14T02:15:35;30;23;
33264;PMS5003;31404;53.974;-1.086;2024-02-14T02:20:35;26;21;
33264;PMS5003;31404;53.974;-1.086;2024-02-14T02:25:35;27;20;
33264;PMS5003;31404;53.974;-1.086;2024-02-14T02:30:35;26;19;
33264;PMS5003;31404;53.974;-1.086;2024-02-14T02:35:35;25;21;
33264;PMS5003;31404;53.974;-1.086;2024-02-14T02:40:34;28;22;
33264;PMS5003;31404;53.974;-1.086;2024-02-14T02:45:35;27;20;
33264;PMS5003;31404;53.974;-1.086;2024-02-14T02:50:35;22;21;
33264;PMS5003;31404;53.974;-1.086;2024-02-14T02:55:34;32;29;
33264;PMS5003;31404;53.974;-1.086;2024-02-14T03:00:35;26;23;
33264;PMS5003;31404;53.974;-1.086;2024-02-14T03:05:35;30;21;
33264;PMS5003;31404;53.974;-1.086;2024-02-14T03:10:34;23;22;
33264;PMS5003;31404;53.974;-1.086;2024-02-14T03:15:34;23;23;
33264;PMS5003;31404;53.974;-1.086;2024-02-14T03:20:36;26;24;
33264;PMS5003;31404;53.974;-1.086;2024-02-14T03:25:34;24;21;
33264;PMS5003;31404;53.974;-1.086;2024-02-14T03:30:34;29;25;
33264;PMS5003;31404;53.974;-1.086;2024-02-14T03:35:35;34;30;
33264;PMS5003;31404;53.974;-1.086;2024-02-14T03:40:35;26;23;
33264;PMS5003;31404;53.974;-1.086;2024-02-14T03:45:34;35;25;
33264;PMS5003;31404;53.974;-1.086;2024-02-14T03:50:35;28;24;
33264;PMS5003;31404;53.974;-1.086;2024-02-14T03:55:35;31;28;
33264;PMS5003;31404;53.974;-1.086;2024-02-14T04:05:30;34;28;
33264;PMS5003;31404;53.974;-1.086;2024-02-14T04:10:34;31;29;
33264;PMS5003;31404;53.974;-1.086;2024-02-14T04:15:34;28;24;
33264;PMS5003;31404;53.974;-1.086;2024-02-14T04:20:35;32;26;
33264;PMS5003;31404;53.974;-1.086;2024-02-14T04:25:34;38;29;
33264;PMS5003;31404;53.974;-1.086;2024-02-14T04:30:35;33;29;
33264;PMS5003;31404;53.974;-1.086;2024-02-14T04:35:34;38;33;
33264;PMS5003;31404;53.974;-1.086;2024-02-14T04:45:35;31;27;
33264;PMS5003;31404;53.974;-1.086;2024-02-14T04:50:35;33;28;
33264;PMS5003;31404;53.974;-1.086;2024-02-14T04:55:34;37;33;
33264;PMS5003;31404;53.974;-1.086;2024-02-14T05:00:34;37;28;
33264;PMS5003;31404;53.974;-1.086;2024-02-14T05:05:35;29;25;
33264;PMS5003;31404;53.974;-1.086;2024-02-14T05:10:34;32;26;
33264;PMS5003;31404;53.974;-1.086;2024-02-14T05:15:35;32;24;
33264;PMS5003;31404;53.974;-1.086;2024-02-14T05:20:34;30;23;
33264;PMS5003;31404;53.974;-1.086;2024-02-14T05:25:35;32;26;
33264;PMS5003;31404;53.974;-1.086;2024-02-14T05:30:35;40;29;
33264;PMS5003;31404;53.974;-1.086;2024-02-14T05:35:35;38;31;
33264;PMS5003;31404;53.974;-1.086;2024-02-14T05:40:35;33;28;
33264;PMS5003;31404;53.974;-1.086;2024-02-14T05:45:35;31;24;
33264;PMS5003;31404;53.974;-1.086;2024-02-14T05:50:35;32;31;
33264;PMS5003;31404;53.974;-1.086;2024-02-14T05:55:37;33;31;
33264;PMS5003;31404;53.974;-1.086;2024-02-14T06:00:35;31;26;
33264;PMS5003;31404;53.974;-1.086;2024-02-14T06:05:42;34;25;
33264;PMS5003;31404;53.974;-1.086;2024-02-14T06:10:35;27;18;
33264;PMS5003;31404;53.974;-1.086;2024-02-14T06:15:35;23;22;
33264;PMS5003;31404;53.974;-1.086;2024-02-14T06:20:35;42;32;
33264;PMS5003;31404;53.974;-1.086;2024-02-14T06:25:38;35;26;
33264;PMS5003;31404;53.974;-1.086;2024-02-14T06:30:35;38;28;
33264;PMS5003;31404;53.974;-1.086;2024-02-14T06:35:35;26;23;
33264;PMS5003;31404;53.974;-1.086;2024-02-14T06:40:35;30;25;
33264;PMS5003;31404;53.974;-1.086;2024-02-14T06:45:34;26;23;
33264;PMS5003;31404;53.974;-1.086;2024-02-14T06:50:34;23;21;
33264;PMS5003;31404;53.974;-1.086;2024-02-14T06:55:34;30;23;
33264;PMS5003;31404;53.974;-1.086;2024-02-14T07:00:34;27;19;
33264;PMS5003;31404;53.974;-1.086;2024-02-14T07:05:34;15;14;
33264;PMS5003;31404;53.974;-1.086;2024-02-14T07:10:35;23;20;
33264;PMS5003;31404;53.974;-1.086;2024-02-14T07:20:34;24;20;
33264;PMS5003;31404;53.974;-1.086;2024-02-14T07:25:34;19;18;
33264;PMS5003;31404;53.974;-1.086;2024-02-14T07:30:35;19;17;
33264;PMS5003;31404;53.974;-1.086;2024-02-14T07:35:34;20;17;
33264;PMS5003;31404;53.974;-1.086;2024-02-14T07:40:35;19;17;
33264;PMS5003;31404;53.974;-1.086;2024-02-14T07:45:35;20;19;
33264;PMS5003;31404;53.974;-1.086;2024-02-14T07:50:34;13;12;
33264;PMS5003;31404;53.974;-1.086;2024-02-14T07:55:34;27;22;
33264;PMS5003;31404;53.974;-1.086;2024-02-14T08:00:35;23;21;
33264;PMS5003;31404;53.974;-1.086;2024-02-14T08:05:35;21;15;
33264;PMS5003;31404;53.974;-1.086;2024-02-14T08:10:35;24;18;
33264;PMS5003;31404;53.974;-1.086;2024-02-14T08:15:35;19;16;
33264;PMS5003;31404;53.974;-1.086;2024-02-14T08:20:35;26;20;
33264;PMS5003;31404;53.974;-1.086;2024-02-14T08:25:35;18;15;
33264;PMS5003;31404;53.974;-1.086;2024-02-14T08:30:33;17;16;
33264;PMS5003;31404;53.974;-1.086;2024-02-14T08:35:34;21;17;
33264;PMS5003;31404;53.974;-1.086;2024-02-14T08:40:33;16;13;
33264;PMS5003;31404;53.974;-1.086;2024-02-14T08:45:34;15;15;
33264;PMS5003;31404;53.974;-1.086;2024-02-14T08:50:35;17;15;
33264;PMS5003;31404;53.974;-1.086;2024-02-14T08:55:35;11;11;
33264;PMS5003;31404;53.974;-1.086;2024-02-14T09:00:34;20;14;
33264;PMS5003;31404;53.974;-1.086;2024-02-14T09:05:35;17;15;
33264;PMS5003;31404;53.974;-1.086;2024-02-14T09:10:34;19;17;
33264;PMS5003;31404;53.974;-1.086;2024-02-14T09:15:34;17;16;
33264;PMS5003;31404;53.974;-1.086;2024-02-14T09:20:35;13;13;
33264;PMS5003;31404;53.974;-1.086;2024-02-14T09:25:34;12;11;
33264;PMS5003;31404;53.974;-1.086;2024-02-14T09:30:34;11;9;
33264;PMS5003;31404;53.974;-1.086;2024-02-14T09:35:37;10;8;
33264;PMS5003;31404;53.974;-1.086;2024-02-14T09:40:35;7;7;
33264;PMS5003;31404;53.974;-1.086;2024-02-14T09:45:34;7;7;
33264;PMS5003;31404;53.974;-1.086;2024-02-14T09:50:36;7;7;
33264;PMS5003;31404;53.974;-1.086;2024-02-14T09:55:34;9;8;
33264;PMS5003;31404;53.974;-1.086;2024-02-14T10:00:34;6;6;
33264;PMS5003;31404;53.974;-1.086;2024-02-14T10:05:34;7;7;
33264;PMS5003;31404;53.974;-1.086;2024-02-14T10:10:34;5;4;
33264;PMS5003;31404;53.974;-1.086;2024-02-14T10:15:34;11;7;
33264;PMS5003;31404;53.974;-1.086;2024-02-14T10:20:40;7;7;
33264;PMS5003;31404;53.974;-1.086;2024-02-14T10:25:35;11;8;
33264;PMS5003;31404;53.974;-1.086;2024-02-14T10:30:34;4;4;
33264;PMS5003;31404;53.974;-1.086;2024-02-14T10:35:35;8;7;
33264;PMS5003;31404;53.974;-1.086;2024-02-14T10:40:34;5;4;
33264;PMS5003;31404;53.974;-1.086;2024-02-14T10:45:35;9;6;
33264;PMS5003;31404;53.974;-1.086;2024-02-14T10:50:34;8;6;
33264;PMS5003;31404;53.974;-1.086;2024-02-14T10:55:35;5;5;
33264;PMS5003;31404;53.974;-1.086;2024-02-14T11:00:35;9;4;
33264;PMS5003;31404;53.974;-1.086;2024-02-14T11:10:37;7;7;
33264;PMS5003;31404;53.974;-1.086;2024-02-14T11:15:35;9;7;
33264;PMS5003;31404;53.974;-1.086;2024-02-14T11:20:35;2;2;
33264;PMS5003;31404;53.974;-1.086;2024-02-14T11:25:34;5;5;
33264;PMS5003;31404;53.974;-1.086;2024-02-14T11:30:35;9;4;
33264;PMS5003;31404;53.974;-1.086;2024-02-14T11:35:35;3;3;
33264;PMS5003;31404;53.974;-1.086;2024-02-14T11:40:33;6;5;
33264;PMS5003;31404;53.974;-1.086;2024-02-14T11:45:29;4;4;
33264;PMS5003;31404;53.974;-1.086;2024-02-14T11:50:35;7;7;
33264;PMS5003;31404;53.974;-1.086;2024-02-14T11:55:35;9;5;
33264;PMS5003;31404;53.974;-1.086;2024-02-14T12:00:35;6;3;
33264;PMS5003;31404;53.974;-1.086;2024-02-14T12:05:34;8;8;
33264;PMS5003;31404;53.974;-1.086;2024-02-14T12:10:35;9;7;
33264;PMS5003;31404;53.974;-1.086;2024-02-14T12:20:35;6;6;
33264;PMS5003;31404;53.974;-1.086;2024-02-14T12:25:34;8;8;
33264;PMS5003;31404;53.974;-1.086;2024-02-14T12:35:35;6;6;
33264;PMS5003;31404;53.974;-1.086;2024-02-14T12:40:35;5;4;
33264;PMS5003;31404;53.974;-1.086;2024-02-14T12:45:35;5;5;
33264;PMS5003;31404;53.974;-1.086;2024-02-14T12:50:35;6;6;
33264;PMS5003;31404;53.974;-1.086;2024-02-14T12:55:35;4;4;
33264;PMS5003;31404;53.974;-1.086;2024-02-14T13:00:35;6;6;
33264;PMS5003;31404;53.974;-1.086;2024-02-14T13:05:35;6;5;
33264;PMS5003;31404;53.974;-1.086;2024-02-14T13:10:34;5;5;
33264;PMS5003;31404;53.974;-1.086;2024-02-14T13:15:35;5;5;
33264;PMS5003;31404;53.974;-1.086;2024-02-14T13:20:35;5;3;
33264;PMS5003;31404;53.974;-1.086;2024-02-14T13:25:35;6;5;
33264;PMS5003;31404;53.974;-1.086;2024-02-14T13:30:35;4;3;
33264;PMS5003;31404;53.974;-1.086;2024-02-14T13:35:34;4;4;
33264;PMS5003;31404;53.974;-1.086;2024-02-14T13:40:35;5;5;
33264;PMS5003;31404;53.974;-1.086;2024-02-14T13:50:34;9;6;
33264;PMS5003;31404;53.974;-1.086;2024-02-14T13:55:35;7;7;
33264;PMS5003;31404;53.974;-1.086;2024-02-14T14:05:35;5;5;
33264;PMS5003;31404;53.974;-1.086;2024-02-14T14:10:35;5;5;
33264;PMS5003;31404;53.974;-1.086;2024-02-14T14:15:35;6;6;
33264;PMS5003;31404;53.974;-1.086;2024-02-14T14:20:35;7;7;
33264;PMS5003;31404;53.974;-1.086;2024-02-14T14:25:35;7;7;
33264;PMS5003;31404;53.974;-1.086;2024-02-14T14:30:35;8;8;
33264;PMS5003;31404;53.974;-1.086;2024-02-14T14:35:34;7;7;
33264;PMS5003;31404;53.974;-1.086;2024-02-14T14:40:35;8;6;
33264;PMS5003;31404;53.974;-1.086;2024-02-14T14:45:34;12;12;
33264;PMS5003;31404;53.974;-1.086;2024-02-14T14:50:35;5;5;
33264;PMS5003;31404;53.974;-1.086;2024-02-14T15:00:35;5;5;
33264;PMS5003;31404;53.974;-1.086;2024-02-14T15:10:34;3;3;
33264;PMS5003;31404;53.974;-1.086;2024-02-14T15:15:35;1;1;
33264;PMS5003;31404;53.974;-1.086;2024-02-14T15:20:35;5;5;
33264;PMS5003;31404;53.974;-1.086;2024-02-14T15:25:35;4;4;
33264;PMS5003;31404;53.974;-1.086;2024-02-14T15:30:34;4;4;
33264;PMS5003;31404;53.974;-1.086;2024-02-14T15:35:35;4;3;
33264;PMS5003;31404;53.974;-1.086;2024-02-14T15:40:35;1;1;
33264;PMS5003;31404;53.974;-1.086;2024-02-14T15:45:34;3;3;
33264;PMS5003;31404;53.974;-1.086;2024-02-14T15:50:35;8;7;
33264;PMS5003;31404;53.974;-1.086;2024-02-14T15:55:35;5;5;
33264;PMS5003;31404;53.974;-1.086;2024-02-14T16:00:35;8;6;
33264;PMS5003;31404;53.974;-1.086;2024-02-14T16:05:35;7;5;
33264;PMS5003;31404;53.974;-1.086;2024-02-14T16:10:35;4;4;
33264;PMS5003;31404;53.974;-1.086;2024-02-14T16:15:35;6;6;
33264;PMS5003;31404;53.974;-1.086;2024-02-14T16:20:34;9;6;
33264;PMS5003;31404;53.974;-1.086;2024-02-14T16:25:35;7;7;
33264;PMS5003;31404;53.974;-1.086;2024-02-14T16:30:35;8;8;
33264;PMS5003;31404;53.974;-1.086;2024-02-14T16:35:35;8;6;
33264;PMS5003;31404;53.974;-1.086;2024-02-14T16:40:35;11;11;
33264;PMS5003;31404;53.974;-1.086;2024-02-14T16:45:34;7;7;
33264;PMS5003;31404;53.974;-1.086;2024-02-14T16:50:35;11;8;
33264;PMS5003;31404;53.974;-1.086;2024-02-14T16:55:35;8;7;
33264;PMS5003;31404;53.974;-1.086;2024-02-14T17:00:34;7;7;
33264;PMS5003;31404;53.974;-1.086;2024-02-14T17:05:35;11;8;
33264;PMS5003;31404;53.974;-1.086;2024-02-14T17:10:35;8;8;
33264;PMS5003;31404;53.974;-1.086;2024-02-14T17:15:35;8;6;
33264;PMS5003;31404;53.974;-1.086;2024-02-14T17:20:35;12;6;
33264;PMS5003;31404;53.974;-1.086;2024-02-14T17:25:35;6;6;
33264;PMS5003;31404;53.974;-1.086;2024-02-14T17:30:35;11;6;
33264;PMS5003;31404;53.974;-1.086;2024-02-14T17:35:34;8;8;
33264;PMS5003;31404;53.974;-1.086;2024-02-14T17:40:35;7;7;
33264;PMS5003;31404;53.974;-1.086;2024-02-14T17:45:35;10;9;
33264;PMS5003;31404;53.974;-1.086;2024-02-14T17:50:34;15;15;
33264;PMS5003;31404;53.974;-1.086;2024-02-14T17:55:35;9;8;
33264;PMS5003;31404;53.974;-1.086;2024-02-14T18:00:35;9;8;
33264;PMS5003;31404;53.974;-1.086;2024-02-14T18:05:34;13;9;
33264;PMS5003;31404;53.974;-1.086;2024-02-14T18:10:34;10;9;
33264;PMS5003;31404;53.974;-1.086;2024-02-14T18:15:34;19;16;
33264;PMS5003;31404;53.974;-1.086;2024-02-14T18:20:34;16;10;
33264;PMS5003;31404;53.974;-1.086;2024-02-14T18:25:34;15;13;
33264;PMS5003;31404;53.974;-1.086;2024-02-14T18:30:35;18;17;
33264;PMS5003;31404;53.974;-1.086;2024-02-14T18:35:35;18;16;
33264;PMS5003;31404;53.974;-1.086;2024-02-14T18:40:34;11;11;
33264;PMS5003;31404;53.974;-1.086;2024-02-14T18:45:34;7;7;
33264;PMS5003;31404;53.974;-1.086;2024-02-14T18:50:35;12;8;
33264;PMS5003;31404;53.974;-1.086;2024-02-14T18:55:35;3;3;
33264;PMS5003;31404;53.974;-1.086;2024-02-14T19:00:34;9;9;
33264;PMS5003;31404;53.974;-1.086;2024-02-14T19:05:35;10;10;
33264;PMS5003;31404;53.974;-1.086;2024-02-14T19:10:35;7;4;
33264;PMS5003;31404;53.974;-1.086;2024-02-14T19:15:36;8;4;
33264;PMS5003;31404;53.974;-1.086;2024-02-14T19:20:41;13;10;
33264;PMS5003;31404;53.974;-1.086;2024-02-14T19:25:36;12;8;
33264;PMS5003;31404;53.974;-1.086;2024-02-14T19:30:35;8;8;
33264;PMS5003;31404;53.974;-1.086;2024-02-14T19:35:34;5;5;
33264;PMS5003;31404;53.974;-1.086;2024-02-14T19:40:35;7;7;
33264;PMS5003;31404;53.974;-1.086;2024-02-14T19:45:34;14;9;
33264;PMS5003;31404;53.974;-1.086;2024-02-14T19:50:35;11;11;
33264;PMS5003;31404;53.974;-1.086;2024-02-14T19:55:34;15;10;
33264;PMS5003;31404;53.974;-1.086;2024-02-14T20:00:34;11;7;
33264;PMS5003;31404;53.974;-1.086;2024-02-14T20:05:34;13;12;
33264;PMS5003;31404;53.974;-1.086;2024-02-14T20:10:35;10;10;
33264;PMS5003;31404;53.974;-1.086;2024-02-14T20:15:35;19;15;
33264;PMS5003;31404;53.974;-1.086;2024-02-14T20:20:35;14;11;
33264;PMS5003;31404;53.974;-1.086;2024-02-14T20:25:35;8;8;
33264;PMS5003;31404;53.974;-1.086;2024-02-14T20:30:35;12;11;
33264;PMS5003;31404;53.974;-1.086;2024-02-14T20:35:34;11;11;
33264;PMS5003;31404;53.974;-1.086;2024-02-14T20:40:36;13;11;
33264;PMS5003;31404;53.974;-1.086;2024-02-14T20:45:34;9;9;
33264;PMS5003;31404;53.974;-1.086;2024-02-14T20:50:35;13;9;
33264;PMS5003;31404;53.974;-1.086;2024-02-14T20:55:35;15;15;
33264;PMS5003;31404;53.974;-1.086;2024-02-14T21:00:35;13;13;
33264;PMS5003;31404;53.974;-1.086;2024-02-14T21:05:34;13;12;
33264;PMS5003;31404;53.974;-1.086;2024-02-14T21:10:35;15;13;
33264;PMS5003;31404;53.974;-1.086;2024-02-14T21:15:34;12;10;
33264;PMS5003;31404;53.974;-1.086;2024-02-14T21:20:34;13;10;
33264;PMS5003;31404;53.974;-1.086;2024-02-14T21:25:35;10;10;
33264;PMS5003;31404;53.974;-1.086;2024-02-14T21:30:34;12;11;
33264;PMS5003;31404;53.974;-1.086;2024-02-14T21:35:34;13;12;
33264;PMS5003;31404;53.974;-1.086;2024-02-14T21:40:35;14;10;
33264;PMS5003;31404;53.974;-1.086;2024-02-14T21:45:34;11;10;
33264;PMS5003;31404;53.974;-1.086;2024-02-14T21:50:35;14;12;
33264;PMS5003;31404;53.974;-1.086;2024-02-14T21:55:34;13;11;
33264;PMS5003;31404;53.974;-1.086;2024-02-14T22:00:35;9;9;
33264;PMS5003;31404;53.974;-1.086;2024-02-14T22:05:35;11;10;
33264;PMS5003;31404;53.974;-1.086;2024-02-14T22:10:34;15;13;
33264;PMS5003;31404;53.974;-1.086;2024-02-14T22:15:35;11;11;
33264;PMS5003;31404;53.974;-1.086;2024-02-14T22:20:34;14;13;
33264;PMS5003;31404;53.974;-1.086;2024-02-14T22:25:34;2;2;
33264;PMS5003;31404;53.974;-1.086;2024-02-14T22:30:35;18;15;
33264;PMS5003;31404;53.974;-1.086;2024-02-14T22:35:34;14;12;
33264;PMS5003;31404;53.974;-1.086;2024-02-14T22:40:35;11;10;
33264;PMS5003;31404;53.974;-1.086;2024-02-14T22:45:35;10;10;
33264;PMS5003;31404;53.974;-1.086;2024-02-14T22:50:34;13;12;
33264;PMS5003;31404;53.974;-1.086;2024-02-14T22:55:35;10;10;
33264;PMS5003;31404;53.974;-1.086;2024-02-14T23:00:36;8;8;
33264;PMS5003;31404;53.974;-1.086;2024-02-14T23:05:35;12;11;
33264;PMS5003;31404;53.974;-1.086;2024-02-14T23:10:34;12;12;
33264;PMS5003;31404;53.974;-1.086;2024-02-14T23:15:34;10;10;
33264;PMS5003;31404;53.974;-1.086;2024-02-14T23:20:35;10;8;
33264;PMS5003;31404;53.974;-1.086;2024-02-14T23:25:35;10;8;
33264;PMS5003;31404;53.974;-1.086;2024-02-14T23:30:35;7;5;
33264;PMS5003;31404;53.974;-1.086;2024-02-14T23:35:34;4;3;
33264;PMS5003;31404;53.974;-1.086;2024-02-14T23:40:34;6;5;
33264;PMS5003;31404;53.974;-1.086;2024-02-14T23:45:35;11;7;
33264;PMS5003;31404;53.974;-1.086;2024-02-14T23:50:35;6;6;
33264;PMS5003;31404;53.974;-1.086;2024-02-14T23:55:35;8;6;
